createdAt,value
2019-04-20T00:01:07.466Z,33.30
2019-04-20T00:02:39.937Z,33.40
2019-04-20T00:04:20.539Z,33.40
2019-04-20T00:05:46.479Z,34.10
2019-04-20T00:07:24.660Z,33.60
2019-04-20T00:08:59.844Z,33.50
2019-04-20T00:10:28.922Z,33.50
2019-04-20T00:12:09.019Z,33.60
2019-04-20T00:13:45.385Z,33.60
2019-04-20T00:15:09.272Z,33.60
2019-04-20T00:16:42.020Z,33.70
2019-04-20T00:18:15.108Z,33.70
2019-04-20T00:19:53.842Z,33.70
2019-04-20T00:21:22.684Z,33.80
2019-04-20T00:22:56.994Z,33.90
2019-04-20T00:24:33.639Z,33.90
2019-04-20T00:26:13.155Z,33.90
2019-04-20T00:28:00.714Z,33.90
2019-04-20T00:29:30.989Z,34.00
2019-04-20T00:31:07.187Z,34.20
2019-04-20T00:32:37.651Z,34.20
2019-04-20T00:34:05.874Z,34.10
2019-04-20T00:35:29.337Z,34.20
2019-04-20T00:37:02.309Z,34.30
2019-04-20T00:38:40.829Z,34.30
2019-04-20T00:40:09.893Z,34.30
2019-04-20T00:41:49.875Z,34.40
2019-04-20T00:43:22.077Z,34.50
2019-04-20T00:44:56.329Z,34.60
2019-04-20T00:46:32.888Z,34.70
2019-04-20T00:48:06.017Z,34.70
2019-04-20T00:49:46.795Z,34.70
2019-04-20T00:51:23.890Z,34.80
2019-04-20T00:52:54.304Z,34.80
2019-04-20T00:54:16.000Z,34.90
2019-04-20T00:55:48.620Z,35.00
2019-04-20T00:57:34.060Z,35.00
2019-04-20T00:59:12.018Z,35.20
2019-04-20T01:00:48.482Z,35.30
2019-04-20T01:02:17.796Z,35.20
2019-04-20T01:03:52.164Z,35.30
2019-04-20T01:05:22.950Z,35.30
2019-04-20T01:06:59.681Z,35.40
2019-04-20T01:08:19.718Z,35.50
2019-04-20T01:09:54.218Z,35.60
2019-04-20T01:11:33.929Z,35.60
2019-04-20T01:13:06.745Z,35.70
2019-04-20T01:14:43.412Z,35.80
2019-04-20T01:16:21.775Z,35.80
2019-04-20T01:17:43.222Z,35.90
2019-04-20T01:19:18.870Z,36.00
2019-04-20T01:20:49.876Z,36.00
2019-04-20T01:22:25.627Z,36.10
2019-04-20T01:24:01.873Z,36.10
2019-04-20T01:25:35.584Z,36.10
2019-04-20T01:27:06.995Z,36.20
2019-04-20T01:28:55.129Z,36.20
2019-04-20T01:30:23.886Z,36.20
2019-04-20T01:32:01.159Z,36.30
2019-04-20T01:33:35.509Z,36.30
2019-04-20T01:35:12.122Z,36.40
2019-04-20T01:36:51.741Z,36.40
2019-04-20T01:38:21.283Z,36.40
2019-04-20T01:39:44.250Z,36.40
2019-04-20T01:41:14.048Z,36.50
2019-04-20T01:42:46.874Z,37.20
2019-04-20T01:44:27.059Z,36.60
2019-04-20T01:46:02.260Z,36.60
2019-04-20T01:47:32.071Z,36.60
2019-04-20T01:49:07.956Z,36.70
2019-04-20T01:50:43.439Z,36.70
2019-04-20T01:52:18.847Z,36.80
2019-04-20T01:54:02.156Z,36.80
2019-04-20T01:55:35.896Z,37.00
2019-04-20T01:57:02.659Z,37.10
2019-04-20T01:58:46.730Z,37.00
2019-04-20T02:00:10.636Z,37.10
2019-04-20T02:01:38.038Z,37.20
2019-04-20T02:03:10.241Z,37.20
2019-04-20T02:04:47.308Z,37.20
2019-04-20T02:06:20.206Z,37.30
2019-04-20T02:07:55.042Z,37.40
2019-04-20T02:09:28.007Z,37.40
2019-04-20T02:11:02.670Z,37.50
2019-04-20T02:12:37.596Z,37.50
2019-04-20T02:14:10.390Z,37.60
2019-04-20T02:15:48.606Z,37.60
2019-04-20T02:17:26.069Z,37.60
2019-04-20T02:19:09.059Z,37.80
2019-04-20T02:20:45.069Z,37.70
2019-04-20T02:22:09.776Z,37.70
2019-04-20T02:23:40.745Z,37.80
2019-04-20T02:25:08.002Z,37.80
2019-04-20T02:26:41.014Z,37.90
2019-04-20T02:28:30.281Z,37.90
2019-04-20T02:30:13.353Z,38.00
2019-04-20T02:33:36.193Z,38.00
2019-04-20T02:34:59.414Z,38.10
2019-04-20T02:36:53.286Z,38.20
2019-04-20T02:39:46.274Z,38.30
2019-04-20T02:41:21.467Z,38.40
2019-04-20T02:42:59.920Z,38.40
2019-04-20T02:49:19.853Z,38.70
2019-04-20T02:50:43.254Z,38.80
2019-04-20T02:52:20.881Z,38.70
2019-04-20T02:54:02.231Z,38.70
2019-04-20T02:55:26.758Z,38.80
2019-04-20T02:58:35.694Z,38.80
2019-04-20T03:01:32.508Z,38.90
2019-04-20T03:02:56.099Z,38.90
2019-04-20T03:04:29.080Z,38.90
2019-04-20T03:06:12.489Z,39.60
2019-04-20T03:07:48.918Z,39.00
2019-04-20T03:09:36.159Z,39.10
2019-04-20T03:11:00.793Z,39.10
2019-04-20T03:12:35.591Z,39.20
2019-04-20T03:14:03.633Z,39.30
2019-04-20T03:15:37.559Z,39.30
2019-04-20T03:17:15.186Z,39.30
2019-04-20T03:18:41.565Z,39.40
2019-04-20T03:20:23.078Z,39.50
2019-04-20T03:22:00.083Z,39.60
2019-04-20T03:25:09.354Z,39.70
2019-04-20T03:26:33.974Z,39.80
2019-04-20T03:28:10.854Z,39.90
2019-04-20T03:29:40.950Z,39.90
2019-04-20T03:31:41.672Z,40.00
2019-04-20T03:33:12.370Z,40.20
2019-04-20T03:36:12.516Z,40.10
2019-04-20T03:37:36.812Z,40.20
2019-04-20T03:39:01.492Z,40.20
2019-04-20T03:40:37.445Z,40.30
2019-04-20T03:41:58.683Z,40.30
2019-04-20T03:43:31.056Z,40.50
2019-04-20T03:45:09.132Z,41.20
2019-04-20T03:46:45.557Z,40.60
2019-04-20T03:48:32.570Z,40.80
2019-04-20T03:50:07.904Z,40.80
2019-04-20T03:51:39.814Z,40.90
2019-04-20T03:53:13.965Z,40.90
2019-04-20T03:54:39.378Z,41.00
2019-04-20T03:56:26.425Z,41.00
2019-04-20T03:57:57.511Z,41.20
2019-04-20T03:59:25.866Z,41.20
2019-04-20T04:00:59.261Z,41.40
2019-04-20T04:02:58.366Z,41.40
2019-04-20T04:04:14.911Z,41.40
2019-04-20T04:05:42.262Z,41.40
2019-04-20T04:07:08.106Z,41.40
2019-04-20T04:08:42.377Z,41.50
2019-04-20T04:10:20.722Z,41.50
2019-04-20T04:11:54.666Z,41.50
2019-04-20T04:13:18.603Z,41.60
2019-04-20T04:14:51.515Z,41.70
2019-04-20T04:16:34.217Z,41.70
2019-04-20T04:18:10.280Z,41.70
2019-04-20T04:19:36.654Z,41.70
2019-04-20T04:21:12.636Z,41.80
2019-04-20T04:23:02.509Z,41.70
2019-04-20T04:24:27.234Z,41.70
2019-04-20T04:26:22.328Z,41.80
2019-04-20T04:27:40.520Z,41.80
2019-04-20T04:29:22.744Z,41.90
2019-04-20T04:30:49.547Z,41.90
2019-04-20T04:32:39.384Z,42.00
2019-04-20T04:33:58.087Z,41.90
2019-04-20T04:35:24.357Z,42.00
2019-04-20T04:37:03.696Z,42.00
2019-04-20T04:38:41.923Z,42.00
2019-04-20T04:40:27.807Z,42.10
2019-04-20T04:41:50.985Z,42.30
2019-04-20T04:43:19.743Z,42.30
2019-04-20T04:44:48.434Z,42.20
2019-04-20T04:46:12.367Z,42.20
2019-04-20T04:47:45.342Z,42.20
2019-04-20T04:49:25.759Z,42.30
2019-04-20T04:50:58.974Z,42.20
2019-04-20T04:52:32.096Z,42.20
2019-04-20T04:54:12.851Z,42.30
2019-04-20T04:55:45.239Z,42.30
2019-04-20T04:57:09.388Z,42.30
2019-04-20T04:58:42.642Z,42.20
2019-04-20T05:00:17.875Z,42.30
2019-04-20T05:01:51.968Z,42.30
2019-04-20T05:03:38.646Z,42.30
2019-04-20T05:05:18.003Z,42.30
2019-04-20T05:06:45.357Z,42.40
2019-04-20T05:08:15.435Z,42.50
2019-04-20T05:09:39.837Z,42.50
2019-04-20T05:11:13.627Z,42.50
2019-04-20T05:12:46.511Z,42.60
2019-04-20T05:14:24.420Z,42.50
2019-04-20T05:16:10.969Z,42.60
2019-04-20T05:17:52.996Z,42.70
2019-04-20T05:19:23.479Z,42.60
2019-04-20T05:20:58.871Z,42.70
2019-04-20T05:22:37.807Z,42.70
2019-04-20T05:24:09.961Z,42.70
2019-04-20T05:25:50.926Z,42.80
2019-04-20T05:27:24.688Z,42.80
2019-04-20T05:28:48.613Z,42.80
2019-04-20T05:30:14.232Z,42.80
2019-04-20T05:31:55.915Z,42.90
2019-04-20T05:33:34.356Z,42.80
2019-04-20T05:35:24.009Z,42.80
2019-04-20T05:36:49.399Z,42.90
2019-04-20T05:38:38.233Z,42.80
2019-04-20T05:40:10.663Z,42.90
2019-04-20T05:41:37.143Z,42.90
2019-04-20T05:43:10.643Z,42.90
2019-04-20T05:44:50.274Z,43.00
2019-04-20T05:46:21.170Z,43.00
2019-04-20T05:47:54.377Z,43.00
2019-04-20T05:49:30.196Z,43.00
2019-04-20T05:51:01.937Z,43.10
2019-04-20T05:52:53.918Z,43.10
2019-04-20T05:54:32.628Z,43.10
2019-04-20T05:55:49.238Z,43.00
2019-04-20T05:58:58.074Z,43.00
2019-04-20T06:00:34.925Z,43.00
2019-04-20T06:02:09.720Z,43.00
2019-04-20T06:03:38.275Z,43.00
2019-04-20T06:05:17.305Z,43.00
2019-04-20T06:06:49.717Z,43.00
2019-04-20T06:08:35.483Z,43.00
2019-04-20T06:10:00.282Z,43.00
2019-04-20T06:11:37.043Z,43.00
2019-04-20T06:13:00.232Z,42.90
2019-04-20T06:14:36.767Z,43.00
2019-04-20T06:16:14.185Z,42.90
2019-04-20T06:17:51.072Z,43.20
2019-04-20T06:19:33.176Z,42.90
2019-04-20T06:20:53.514Z,42.90
2019-04-20T06:22:39.181Z,42.90
2019-04-20T06:24:08.409Z,42.80
2019-04-20T06:27:14.565Z,42.80
2019-04-20T06:28:42.699Z,42.70
2019-04-20T06:30:20.147Z,42.70
2019-04-20T06:31:59.211Z,42.70
2019-04-20T06:33:45.210Z,42.60
2019-04-20T06:35:10.149Z,42.60
2019-04-20T06:38:38.611Z,42.50
2019-04-20T06:41:32.862Z,42.40
2019-04-20T06:42:59.665Z,42.50
2019-04-20T06:46:09.813Z,42.50
2019-04-20T06:47:47.052Z,42.40
2019-04-20T06:49:25.617Z,42.30
2019-04-20T06:50:47.056Z,42.30
2019-04-20T06:53:48.715Z,42.30
2019-04-20T06:55:38.119Z,42.30
2019-04-20T06:57:05.792Z,42.30
2019-04-20T06:59:01.670Z,42.30
2019-04-20T07:00:22.885Z,42.20
2019-04-20T07:01:56.833Z,42.10
2019-04-20T07:03:36.108Z,42.10
2019-04-20T07:05:02.512Z,42.10
2019-04-20T07:08:16.687Z,42.00
2019-04-20T07:09:58.312Z,42.00
2019-04-20T07:11:18.703Z,42.00
2019-04-20T07:12:45.402Z,42.00
2019-04-20T07:14:08.384Z,41.90
2019-04-20T07:15:49.636Z,41.90
2019-04-20T07:17:43.862Z,41.80
2019-04-20T07:19:06.212Z,41.70
2019-04-20T07:20:46.438Z,41.60
2019-04-20T07:22:25.291Z,41.70
2019-04-20T07:23:49.780Z,41.50
2019-04-20T07:25:27.992Z,41.60
2019-04-20T07:26:59.081Z,41.50
2019-04-20T07:28:32.861Z,41.50
2019-04-20T07:30:03.664Z,41.40
2019-04-20T07:31:36.580Z,41.30
2019-04-20T07:33:15.695Z,41.20
2019-04-20T07:34:47.861Z,41.20
2019-04-20T07:36:28.405Z,41.10
2019-04-20T07:38:18.236Z,41.10
2019-04-20T07:39:37.904Z,41.00
2019-04-20T07:40:59.997Z,41.00
2019-04-20T07:42:40.708Z,41.00
2019-04-20T07:44:20.027Z,40.90
2019-04-20T07:45:45.639Z,41.00
2019-04-20T07:47:32.516Z,40.80
2019-04-20T07:48:54.308Z,40.70
2019-04-20T07:50:27.045Z,40.70
2019-04-20T07:51:47.074Z,40.70
2019-04-20T07:53:33.174Z,40.60
2019-04-20T07:55:33.630Z,40.50
2019-04-20T07:56:52.149Z,41.30
2019-04-20T07:58:12.199Z,40.40
2019-04-20T07:59:50.923Z,40.40
2019-04-20T08:01:40.189Z,41.00
2019-04-20T08:03:14.082Z,40.40
2019-04-20T08:04:32.452Z,40.30
2019-04-20T08:06:01.168Z,40.30
2019-04-20T08:07:42.653Z,40.30
2019-04-20T08:09:16.060Z,40.20
2019-04-20T08:10:52.384Z,40.10
2019-04-20T08:12:34.080Z,40.10
2019-04-20T08:14:06.027Z,40.00
2019-04-20T08:15:43.044Z,40.00
2019-04-20T08:17:20.337Z,40.00
2019-04-20T08:18:44.576Z,40.00
2019-04-20T08:20:15.859Z,40.00
2019-04-20T08:21:53.003Z,39.90
2019-04-20T08:23:33.515Z,39.80
2019-04-20T08:24:57.681Z,39.80
2019-04-20T08:26:20.208Z,39.70
2019-04-20T08:27:48.772Z,39.60
2019-04-20T08:29:36.731Z,39.60
2019-04-20T08:31:09.370Z,39.50
2019-04-20T08:32:46.767Z,39.60
2019-04-20T08:34:31.200Z,39.60
2019-04-20T08:36:09.268Z,39.50
2019-04-20T08:37:34.297Z,39.50
2019-04-20T08:40:43.743Z,39.30
2019-04-20T08:42:16.294Z,39.30
2019-04-20T08:44:18.654Z,39.30
2019-04-20T08:45:28.132Z,39.20
2019-04-20T08:47:03.854Z,39.10
2019-04-20T08:48:34.449Z,39.00
2019-04-20T08:50:11.593Z,39.60
2019-04-20T08:51:44.982Z,38.80
2019-04-20T08:53:20.516Z,38.80
2019-04-20T08:54:41.484Z,38.70
2019-04-20T08:56:17.002Z,38.60
2019-04-20T08:57:35.809Z,38.60
2019-04-20T08:59:09.574Z,38.50
2019-04-20T09:00:49.623Z,38.50
2019-04-20T09:02:18.552Z,38.40
2019-04-20T09:03:59.889Z,38.30
2019-04-20T09:05:34.998Z,38.20
2019-04-20T09:07:08.316Z,38.10
2019-04-20T09:08:46.527Z,38.10
2019-04-20T09:10:30.851Z,38.00
2019-04-20T09:12:01.261Z,37.90
2019-04-20T09:13:24.571Z,37.90
2019-04-20T09:14:50.770Z,37.80
2019-04-20T09:16:32.370Z,37.70
2019-04-20T09:18:03.384Z,37.60
2019-04-20T09:19:41.959Z,37.50
2019-04-20T09:21:13.660Z,37.60
2019-04-20T09:22:49.426Z,37.40
2019-04-20T09:24:38.293Z,37.30
2019-04-20T09:26:05.931Z,37.20
2019-04-20T09:27:32.782Z,37.80
2019-04-20T09:29:06.957Z,37.80
2019-04-20T09:30:42.884Z,37.00
2019-04-20T09:32:25.610Z,36.90
2019-04-20T09:33:55.932Z,36.90
2019-04-20T09:35:30.169Z,36.80
2019-04-20T09:37:00.804Z,36.60
2019-04-20T09:38:37.905Z,36.50
2019-04-20T09:40:15.843Z,36.40
2019-04-20T09:41:56.035Z,36.30
2019-04-20T09:43:04.656Z,36.30
2019-04-20T09:44:43.858Z,36.20
2019-04-20T09:46:11.931Z,36.10
2019-04-20T09:47:49.399Z,36.10
2019-04-20T09:49:32.967Z,36.00
2019-04-20T09:51:11.695Z,35.90
2019-04-20T09:52:46.498Z,35.70
2019-04-20T09:54:18.668Z,35.60
2019-04-20T09:55:53.657Z,35.50
2019-04-20T09:57:30.675Z,35.40
2019-04-20T09:59:04.955Z,35.40
2019-04-20T10:00:35.973Z,35.20
2019-04-20T10:02:01.916Z,35.20
2019-04-20T10:03:26.851Z,35.10
2019-04-20T10:04:59.723Z,35.00
2019-04-20T10:06:35.881Z,34.90
2019-04-20T10:08:09.894Z,34.80
2019-04-20T10:09:44.583Z,34.70
2019-04-20T10:11:15.116Z,34.60
2019-04-20T10:12:47.976Z,34.50
2019-04-20T10:14:20.419Z,34.30
2019-04-20T10:15:53.403Z,34.10
2019-04-20T10:17:28.752Z,34.00
2019-04-20T10:19:00.709Z,34.00
2019-04-20T10:20:36.485Z,34.00
2019-04-20T10:22:08.609Z,33.90
2019-04-20T10:23:41.153Z,33.80
2019-04-20T10:25:14.880Z,33.70
2019-04-20T10:26:48.256Z,33.60
2019-04-20T10:28:21.554Z,33.60
2019-04-20T10:29:55.487Z,33.40
2019-04-20T10:31:28.584Z,33.30
2019-04-20T10:33:01.606Z,33.20
2019-04-20T10:34:34.742Z,33.10
2019-04-20T10:36:07.772Z,33.00
2019-04-20T10:37:40.290Z,33.00
2019-04-20T10:39:14.060Z,33.00
2019-04-20T10:40:59.690Z,33.70
2019-04-20T10:42:20.651Z,32.80
2019-04-20T10:43:53.164Z,32.80
2019-04-20T10:45:26.744Z,32.70
2019-04-20T10:47:00.743Z,33.40
2019-04-20T10:48:40.269Z,32.70
2019-04-20T10:50:07.312Z,32.50
2019-04-20T10:51:40.059Z,32.30
2019-04-20T10:53:13.995Z,32.20
2019-04-20T10:54:46.496Z,32.10
2019-04-20T10:56:19.083Z,32.00
2019-04-20T10:57:51.522Z,31.90
2019-04-20T10:59:23.953Z,31.80
2019-04-20T11:00:57.581Z,31.70
2019-04-20T11:02:30.197Z,31.70
2019-04-20T11:04:02.980Z,31.50
2019-04-20T11:05:35.564Z,31.40
2019-04-20T11:07:08.298Z,31.10
2019-04-20T11:08:40.827Z,31.00
2019-04-20T11:10:19.847Z,30.90
2019-04-20T11:11:48.278Z,30.80
2019-04-20T11:13:21.429Z,30.50
2019-04-20T11:14:54.478Z,30.40
2019-04-20T11:16:26.987Z,30.00
2019-04-20T11:17:59.689Z,29.80
2019-04-20T11:19:33.499Z,29.60
2019-04-20T11:21:07.139Z,29.50
2019-04-20T11:22:40.235Z,29.40
2019-04-20T11:24:14.209Z,29.40
2019-04-20T11:25:46.826Z,29.30
2019-04-20T11:27:20.445Z,29.30
2019-04-20T11:28:53.003Z,29.30
2019-04-20T11:30:25.925Z,29.20
2019-04-20T11:31:59.446Z,29.20
2019-04-20T11:33:32.122Z,29.20
2019-04-20T11:35:11.465Z,29.20
2019-04-20T11:36:39.243Z,29.00
2019-04-20T11:38:13.711Z,28.90
2019-04-20T11:39:45.791Z,28.80
2019-04-20T11:41:25.347Z,28.60
2019-04-20T11:42:53.350Z,28.50
2019-04-20T11:44:29.423Z,28.40
2019-04-20T11:46:00.572Z,28.40
2019-04-20T11:47:33.665Z,28.20
2019-04-20T11:49:06.131Z,28.10
2019-04-20T11:50:39.781Z,27.90
2019-04-20T11:52:13.641Z,27.90
2019-04-20T11:53:46.527Z,27.80
2019-04-20T11:55:19.952Z,27.60
2019-04-20T11:56:53.259Z,27.50
2019-04-20T11:58:26.158Z,27.50
2019-04-20T11:59:59.231Z,27.40
2019-04-20T12:01:43.077Z,27.20
2019-04-20T12:03:16.013Z,27.20
2019-04-20T12:04:47.450Z,27.00
2019-04-20T12:06:14.943Z,27.00
2019-04-20T12:07:48.967Z,26.90
2019-04-20T12:09:21.618Z,26.70
2019-04-20T12:10:57.763Z,26.70
2019-04-20T12:12:38.014Z,26.70
2019-04-20T12:14:02.738Z,26.60
2019-04-20T12:15:38.341Z,26.50
2019-04-20T12:17:09.284Z,26.90
2019-04-20T12:18:42.158Z,26.30
2019-04-20T12:20:14.720Z,26.10
2019-04-20T12:21:47.517Z,26.00
2019-04-20T12:23:20.302Z,25.80
2019-04-20T12:24:54.036Z,25.70
2019-04-20T12:26:26.946Z,25.50
2019-04-20T12:28:01.902Z,25.40
2019-04-20T12:29:34.059Z,25.20
2019-04-20T12:31:11.924Z,25.00
2019-04-20T12:32:44.969Z,24.80
2019-04-20T12:34:16.031Z,24.70
2019-04-20T12:35:49.994Z,24.60
2019-04-20T12:37:22.923Z,24.40
2019-04-20T12:38:55.506Z,24.20
2019-04-20T12:40:28.112Z,24.00
2019-04-20T12:42:05.664Z,23.80
2019-04-20T12:43:36.005Z,23.50
2019-04-20T12:45:08.446Z,23.20
2019-04-20T12:46:41.508Z,22.90
2019-04-20T12:48:15.525Z,22.60
2019-04-20T12:49:48.086Z,22.20
2019-04-20T12:51:26.358Z,21.80
2019-04-20T12:52:54.728Z,21.40
2019-04-20T12:54:27.366Z,21.20
2019-04-20T12:56:00.043Z,20.80
2019-04-20T12:57:32.500Z,20.50
2019-04-20T12:59:05.530Z,20.10
2019-04-20T13:00:39.100Z,19.70
2019-04-20T13:02:11.783Z,19.30
2019-04-20T13:03:45.569Z,19.10
2019-04-20T13:05:19.466Z,18.70
2019-04-20T13:06:55.005Z,18.40
2019-04-20T13:08:33.363Z,18.20
2019-04-20T13:10:02.215Z,17.90
2019-04-20T13:11:44.362Z,17.70
2019-04-20T13:13:08.288Z,17.30
2019-04-20T13:14:40.707Z,17.10
2019-04-20T13:16:14.258Z,16.80
2019-04-20T13:17:49.689Z,16.60
2019-04-20T13:19:21.433Z,16.30
2019-04-20T13:20:57.989Z,16.00
2019-04-20T13:22:28.730Z,15.80
2019-04-20T13:24:01.214Z,15.70
2019-04-20T13:25:34.732Z,15.40
2019-04-20T13:27:07.413Z,15.10
2019-04-20T13:28:40.901Z,15.00
2019-04-20T13:30:14.337Z,14.90
2019-04-20T13:31:49.675Z,15.00
2019-04-20T13:33:20.846Z,14.70
2019-04-20T13:34:54.171Z,14.60
2019-04-20T13:36:26.618Z,14.50
2019-04-20T13:38:00.237Z,14.40
2019-04-20T13:39:33.076Z,14.30
2019-04-20T13:41:06.196Z,14.10
2019-04-20T13:42:38.868Z,14.00
2019-04-20T13:44:11.530Z,13.90
2019-04-20T13:45:44.740Z,13.70
2019-04-20T13:47:17.207Z,13.60
2019-04-20T13:48:50.951Z,13.60
2019-04-20T13:50:24.108Z,13.40
2019-04-20T13:51:57.099Z,13.30
2019-04-20T13:53:29.732Z,13.10
2019-04-20T13:55:02.391Z,13.00
2019-04-20T13:56:35.266Z,12.90
2019-04-20T13:58:07.968Z,12.80
2019-04-20T13:59:41.648Z,12.60
2019-04-20T14:03:12.025Z,12.50
2019-04-20T14:04:44.570Z,12.70
2019-04-20T14:06:18.414Z,12.60
2019-04-20T14:07:51.393Z,12.50
2019-04-20T14:09:25.778Z,12.60
2019-04-20T14:10:59.672Z,12.60
2019-04-20T14:12:37.092Z,12.60
2019-04-20T14:14:08.122Z,12.50
2019-04-20T14:15:40.901Z,12.60
2019-04-20T14:17:15.006Z,12.50
2019-04-20T14:18:47.555Z,12.50
2019-04-20T14:20:21.915Z,12.30
2019-04-20T14:21:54.310Z,12.10
2019-04-20T14:23:27.044Z,12.10
2019-04-20T14:25:00.707Z,11.90
2019-04-20T14:26:36.091Z,11.80
2019-04-20T14:28:07.238Z,11.70
2019-04-20T14:29:41.075Z,11.60
2019-04-20T14:31:14.081Z,11.50
2019-04-20T14:32:48.002Z,11.40
2019-04-20T14:34:20.725Z,11.40
2019-04-20T14:35:53.056Z,11.30
2019-04-20T14:37:26.527Z,11.10
2019-04-20T14:39:00.413Z,11.10
2019-04-20T14:40:32.930Z,11.00
2019-04-20T14:42:06.532Z,10.90
2019-04-20T14:43:39.938Z,10.80
2019-04-20T14:45:12.461Z,10.70
2019-04-20T14:46:45.541Z,10.70
2019-04-20T14:48:18.571Z,10.60
2019-04-20T14:49:51.163Z,10.50
2019-04-20T14:51:23.848Z,10.40
2019-04-20T14:52:57.541Z,10.30
2019-04-20T14:54:30.041Z,10.20
2019-04-20T14:56:02.402Z,10.00
2019-04-20T14:57:35.367Z,9.90
2019-04-20T14:59:07.864Z,9.80
2019-04-20T15:00:41.528Z,9.80
2019-04-20T15:02:15.335Z,9.70
2019-04-20T15:03:50.933Z,9.70
2019-04-20T15:05:23.283Z,9.30
2019-04-20T15:06:56.817Z,9.80
2019-04-20T15:08:30.385Z,9.70
2019-04-20T15:10:03.108Z,9.70
2019-04-20T15:11:38.187Z,9.70
2019-04-20T15:13:11.280Z,9.70
2019-04-20T15:14:44.939Z,9.70
2019-04-20T15:16:24.637Z,9.80
2019-04-20T15:17:57.624Z,9.90
2019-04-20T15:19:31.583Z,9.90
2019-04-20T15:21:07.175Z,9.90
2019-04-20T15:22:39.615Z,10.00
2019-04-20T15:24:13.319Z,10.00
2019-04-20T15:25:46.475Z,10.10
2019-04-20T15:27:19.024Z,10.10
2019-04-20T15:28:52.514Z,10.10
2019-04-20T15:30:26.411Z,10.20
2019-04-20T15:31:59.916Z,10.30
2019-04-20T15:33:33.092Z,10.40
2019-04-20T15:35:06.958Z,11.00
2019-04-20T15:36:40.211Z,10.60
2019-04-20T15:38:13.316Z,10.70
2019-04-20T15:39:45.765Z,10.80
2019-04-20T15:41:18.526Z,10.80
2019-04-20T15:42:59.027Z,10.90
2019-04-20T15:44:25.335Z,11.00
2019-04-20T15:45:59.030Z,11.20
2019-04-20T15:47:31.984Z,11.20
2019-04-20T15:49:06.035Z,11.30
2019-04-20T15:50:38.552Z,11.30
2019-04-20T15:52:13.574Z,11.40
2019-04-20T15:53:44.995Z,11.50
2019-04-20T15:55:24.575Z,11.60
2019-04-20T15:56:56.952Z,11.70
2019-04-20T15:58:26.215Z,11.80
2019-04-20T16:00:00.204Z,11.90
2019-04-20T16:01:32.730Z,12.00
2019-04-20T16:03:05.395Z,12.10
2019-04-20T16:04:41.187Z,12.10
2019-04-20T16:06:13.431Z,12.20
2019-04-20T16:07:52.432Z,12.30
2019-04-20T16:09:20.246Z,12.40
2019-04-20T16:10:53.097Z,12.50
2019-04-20T16:12:26.843Z,12.50
2019-04-20T16:14:00.194Z,12.60
2019-04-20T16:15:33.724Z,12.70
2019-04-20T16:17:08.650Z,12.80
2019-04-20T16:18:41.085Z,12.80
2019-04-20T16:20:19.212Z,12.90
2019-04-20T16:21:47.893Z,13.00
2019-04-20T16:23:20.817Z,13.00
2019-04-20T16:24:53.721Z,13.10
2019-04-20T16:26:26.260Z,13.10
2019-04-20T16:27:59.382Z,13.20
2019-04-20T16:29:31.920Z,13.30
2019-04-20T16:31:08.003Z,13.30
2019-04-20T16:32:38.728Z,13.30
2019-04-20T16:34:11.709Z,13.40
2019-04-20T16:35:44.608Z,13.50
2019-04-20T16:37:17.136Z,13.50
2019-04-20T16:38:49.474Z,13.50
2019-04-20T16:40:23.305Z,13.60
2019-04-20T16:41:56.209Z,13.70
2019-04-20T16:43:32.838Z,13.80
2019-04-20T16:45:03.277Z,13.80
2019-04-20T16:46:36.331Z,13.90
2019-04-20T16:48:10.382Z,13.90
2019-04-20T16:49:43.201Z,13.90
2019-04-20T16:51:16.708Z,14.00
2019-04-20T16:52:49.561Z,13.70
2019-04-20T16:54:23.690Z,14.10
2019-04-20T16:55:56.815Z,14.20
2019-04-20T16:57:29.851Z,14.30
2019-04-20T16:59:08.159Z,14.30
2019-04-20T17:00:37.623Z,14.40
2019-04-20T17:02:12.901Z,14.50
2019-04-20T17:03:54.487Z,14.50
2019-04-20T17:05:18.951Z,14.50
2019-04-20T17:06:51.935Z,14.50
2019-04-20T17:08:24.996Z,14.50
2019-04-20T17:09:57.996Z,14.70
2019-04-20T17:11:31.830Z,14.70
2019-04-20T17:13:04.597Z,14.80
2019-04-20T17:14:39.803Z,14.90
2019-04-20T17:16:13.435Z,15.00
2019-04-20T17:17:48.320Z,15.10
2019-04-20T17:19:20.059Z,15.20
2019-04-20T17:20:53.418Z,15.20
2019-04-20T17:22:27.599Z,15.30
2019-04-20T17:24:01.470Z,15.40
2019-04-20T17:25:34.418Z,15.40
2019-04-20T17:27:07.064Z,15.50
2019-04-20T17:28:40.691Z,15.50
2019-04-20T17:30:16.500Z,15.50
2019-04-20T17:31:47.310Z,15.50
2019-04-20T17:33:24.054Z,15.50
2019-04-20T17:35:12.732Z,15.50
2019-04-20T17:36:31.796Z,15.50
2019-04-20T17:38:02.810Z,15.60
2019-04-20T17:39:45.676Z,15.60
2019-04-20T17:41:32.409Z,15.60
2019-04-20T17:42:53.149Z,15.60
2019-04-20T17:44:34.506Z,15.70
2019-04-20T17:46:00.661Z,15.80
2019-04-20T17:47:47.260Z,15.80
2019-04-20T17:49:13.628Z,15.80
2019-04-20T17:50:54.542Z,15.90
2019-04-20T17:52:28.455Z,15.90
2019-04-20T17:53:50.877Z,16.00
2019-04-20T17:55:26.510Z,16.00
2019-04-20T17:56:51.994Z,16.10
2019-04-20T17:58:29.176Z,16.10
2019-04-20T18:00:03.059Z,16.20
2019-04-20T18:01:48.940Z,16.30
2019-04-20T18:03:25.874Z,16.40
2019-04-20T18:05:09.830Z,16.60
2019-04-20T18:06:31.603Z,16.60
2019-04-20T18:08:10.361Z,16.70
2019-04-20T18:09:46.248Z,16.80
2019-04-20T18:11:06.982Z,16.90
2019-04-20T18:12:41.859Z,17.00
2019-04-20T18:14:24.233Z,17.00
2019-04-20T18:15:52.809Z,17.10
2019-04-20T18:17:31.710Z,17.20
2019-04-20T18:18:58.546Z,17.20
2019-04-20T18:20:23.040Z,17.30
2019-04-20T18:21:56.001Z,17.80
2019-04-20T18:23:36.320Z,17.40
2019-04-20T18:25:26.785Z,17.50
2019-04-20T18:26:52.009Z,17.50
2019-04-20T18:28:23.638Z,17.60
2019-04-20T18:30:01.427Z,17.60
2019-04-20T18:31:19.573Z,17.60
2019-04-20T18:32:53.433Z,17.70
2019-04-20T18:34:28.820Z,17.90
2019-04-20T18:36:00.424Z,17.90
2019-04-20T18:37:34.363Z,18.00
2019-04-20T18:39:10.515Z,17.90
2019-04-20T18:40:51.310Z,18.00
2019-04-20T18:42:23.425Z,18.10
2019-04-20T18:43:55.071Z,18.10
2019-04-20T18:45:42.405Z,18.80
2019-04-20T18:47:18.451Z,18.20
2019-04-20T18:48:48.192Z,18.30
2019-04-20T18:50:16.531Z,18.30
2019-04-20T18:51:39.821Z,18.30
2019-04-20T18:53:18.529Z,18.40
2019-04-20T18:54:49.821Z,18.50
2019-04-20T18:56:25.559Z,18.50
2019-04-20T18:57:55.137Z,18.50
2019-04-20T18:59:35.361Z,18.60
2019-04-20T19:01:03.059Z,18.60
2019-04-20T19:02:40.791Z,18.60
2019-04-20T19:04:09.958Z,18.70
2019-04-20T19:05:42.465Z,18.70
2019-04-20T19:07:17.555Z,18.70
2019-04-20T19:08:51.947Z,18.70
2019-04-20T19:10:30.885Z,18.80
2019-04-20T19:12:02.552Z,18.90
2019-04-20T19:13:36.581Z,18.90
2019-04-20T19:15:28.196Z,19.00
2019-04-20T19:16:52.418Z,19.00
2019-04-20T19:18:27.159Z,19.00
2019-04-20T19:19:53.299Z,19.00
2019-04-20T19:21:22.814Z,19.10
2019-04-20T19:22:55.802Z,19.10
2019-04-20T19:24:32.712Z,19.10
2019-04-20T19:26:09.571Z,19.20
2019-04-20T19:27:43.420Z,19.20
2019-04-20T19:29:19.066Z,19.20
2019-04-20T19:30:55.664Z,19.30
2019-04-20T19:32:34.757Z,19.30
2019-04-20T19:34:11.912Z,19.30
2019-04-20T19:35:40.607Z,19.30
2019-04-20T19:37:14.409Z,19.30
2019-04-20T19:38:47.771Z,19.30
2019-04-20T19:40:18.197Z,19.30
2019-04-20T19:41:55.397Z,19.40
2019-04-20T19:43:25.295Z,19.30
2019-04-20T19:45:16.849Z,19.40
2019-04-20T19:47:03.834Z,19.40
2019-04-20T19:48:12.286Z,19.40
2019-04-20T19:49:44.049Z,19.40
2019-04-20T19:51:28.390Z,19.40
2019-04-20T19:53:11.268Z,19.50
2019-04-20T19:54:35.494Z,19.40
2019-04-20T19:56:03.649Z,19.40
2019-04-20T19:57:42.187Z,19.40
2019-04-20T19:59:13.605Z,19.40
2019-04-20T20:00:32.442Z,19.50
2019-04-20T20:02:05.542Z,19.50
2019-04-20T20:03:39.547Z,19.60
2019-04-20T20:05:15.738Z,19.60
2019-04-20T20:06:51.914Z,19.60
2019-04-20T20:08:24.487Z,19.70
2019-04-20T20:09:58.401Z,19.80
2019-04-20T20:11:34.971Z,19.80
2019-04-20T20:13:04.334Z,19.80
2019-04-20T20:14:41.275Z,19.90
2019-04-20T20:16:20.205Z,20.00
2019-04-20T20:18:07.195Z,20.00
2019-04-20T20:19:32.498Z,20.00
2019-04-20T20:21:07.506Z,20.00
2019-04-20T20:22:35.231Z,20.10
2019-04-20T20:24:01.991Z,20.20
2019-04-20T20:25:39.201Z,20.20
2019-04-20T20:27:20.713Z,20.20
2019-04-20T20:28:49.473Z,20.30
2019-04-20T20:30:25.481Z,20.30
2019-04-20T20:32:05.134Z,20.40
2019-04-20T20:33:39.568Z,20.50
2019-04-20T20:35:05.871Z,20.60
2019-04-20T20:36:43.832Z,20.70
2019-04-20T20:38:16.646Z,20.80